Change the Weather History Date:

Sunday, December 9, 2012

  Actual Average Record
Temperature  
Mean Temperature 2 °F -  
Max Temperature 15 °F 23 °F 48 °F (1990)
Min Temperature -11 °F 10 °F -28 °F (1977)
Degree Days  
Heating Degree Days 63    
Moisture  
Dew Point -4 °F    
Average Humidity 80    
Maximum Humidity 92    
Minimum Humidity 66    
Precipitation  
Precipitation 0.00 in - - ()
Sea Level Pressure  
Sea Level Pressure 30.21 in    
Wind  
Wind Speed 15 mph (North)    
Max Wind Speed 22 mph    
Max Gust Speed 25 mph    
Visibility 9 miles    
Events      
Averages and records for this station are not official NWS values.
T = Trace of Precipitation, MM = Missing Value Source: NWS Daily Summary

Daily Weather History Graph

Daily Weather History Graph

Search for Another Location

Airport or City:

Trip Planner

Search our weather history database for the weather conditions in past years. The results will help you decide how hot, cold, wet, or windy it might be!

Date:

Astronomy

Dec. 09, 2012 Rise Set
Actual Time 8:03 AM CST 4:31 PM CST
Civil Twilight 7:27 AM CST 5:07 PM CST
Nautical Twilight 6:47 AM CST 5:46 PM CST
Astronomical Twilight 6:09 AM CST 6:24 PM CST
Moon 3:23 AM CST (12/9) 1:51 PM CST (12/9)
Length of Visible Light 9h 40m
Length of Day
8h 27m
Waning Crescent, 18% of the Moon is Illuminated
Dec 9
Waning Crescent
Dec 13
New
Dec 19
First Quarter
Dec 28
Full
Jan 4
Last Quarter

Hourly Weather History & Observations

Time (CST) Temp. Windchill Dew Point Humidity Pressure Visibility Wind Dir Wind Speed Gust Speed Precip Events Conditions
12:15 AM 15.8 °F 0.3 °F 10.4 °F 79% 30.11 in 3.0 mi NNE 16.1 mph - N/A   Overcast
12:35 AM 14.0 °F -2.5 °F 10.4 °F 86% 30.11 in 3.0 mi NNE 17.3 mph - N/A   Overcast
12:55 AM 14.0 °F -2.0 °F 10.4 °F 86% 30.12 in 2.0 mi NNE 16.1 mph - N/A   Overcast
1:15 AM 12.2 °F -4.3 °F 8.6 °F 85% 30.12 in 2.5 mi NNE 16.1 mph - N/A   Overcast
1:35 AM 12.2 °F -4.3 °F 10.4 °F 92% 30.13 in 5.0 mi NNE 16.1 mph - N/A   Overcast
1:55 AM 12.2 °F -4.3 °F 8.6 °F 85% 30.13 in 5.0 mi NNE 16.1 mph - N/A   Overcast
2:15 AM 12.2 °F -4.8 °F 8.6 °F 85% 30.13 in 3.0 mi NNE 17.3 mph - N/A   Overcast
2:35 AM 12.2 °F -4.3 °F 8.6 °F 85% 30.14 in 3.0 mi NNE 16.1 mph - N/A   Overcast
2:55 AM 12.2 °F -4.3 °F 8.6 °F 85% 30.15 in 4.0 mi North 16.1 mph - N/A   Overcast
3:15 AM 12.2 °F -4.8 °F 6.8 °F 79% 30.15 in 8.0 mi North 17.3 mph 23.0 mph N/A   Overcast
3:35 AM 10.4 °F -6.6 °F 6.8 °F 85% 30.15 in 9.0 mi North 16.1 mph - N/A   Overcast
3:55 AM 10.4 °F -7.7 °F 6.8 °F 85% 30.15 in 10.0 mi North 18.4 mph - N/A   Partly Cloudy
4:15 AM 10.4 °F -7.2 °F 6.8 °F 85% 30.15 in 10.0 mi North 17.3 mph - N/A   Clear
4:35 AM 10.4 °F -7.2 °F 5.0 °F 79% 30.15 in 10.0 mi North 17.3 mph 24.2 mph N/A   Partly Cloudy
4:55 AM 8.6 °F -8.9 °F 3.2 °F 79% 30.17 in 10.0 mi North 16.1 mph 21.9 mph N/A   Partly Cloudy
5:15 AM 6.8 °F -11.8 °F 1.4 °F 79% 30.18 in 10.0 mi North 17.3 mph 23.0 mph N/A   Partly Cloudy
5:35 AM 6.8 °F -12.9 °F 1.4 °F 79% 30.19 in 10.0 mi North 19.6 mph - N/A   Clear
5:55 AM 5.0 °F -13.6 °F -0.4 °F 78% 30.20 in 10.0 mi North 16.1 mph - N/A   Clear
6:15 AM 5.0 °F -14.2 °F 1.4 °F 85% 30.21 in 10.0 mi North 17.3 mph - N/A   Clear
6:35 AM 5.0 °F -13.0 °F -0.4 °F 78% 30.22 in 10.0 mi North 15.0 mph 21.9 mph N/A   Clear
6:55 AM 3.2 °F -15.9 °F -0.4 °F 85% 30.22 in 10.0 mi North 16.1 mph - N/A   Clear
7:15 AM 3.2 °F -15.9 °F -2.2 °F 78% 30.24 in 10.0 mi North 16.1 mph - N/A   Clear
7:35 AM 1.4 °F -17.6 °F -0.4 °F 92% 30.25 in 10.0 mi North 15.0 mph - N/A   Clear
7:55 AM 1.4 °F -17.6 °F -4.0 °F 78% 30.25 in 10.0 mi North 15.0 mph - N/A   Clear
8:15 AM 1.4 °F -17.6 °F -2.2 °F 85% 30.25 in 10.0 mi North 15.0 mph - N/A   Clear
8:35 AM -0.4 °F -19.9 °F -5.8 °F 78% 30.26 in 10.0 mi North 15.0 mph - N/A   Clear
8:55 AM -0.4 °F -20.5 °F -4.0 °F 85% 30.27 in 10.0 mi North 16.1 mph - N/A   Clear
9:15 AM -0.4 °F -19.9 °F -5.8 °F 78% 30.27 in 10.0 mi North 15.0 mph - N/A   Clear
9:35 AM -0.4 °F -21.2 °F -7.6 °F 72% 30.27 in 10.0 mi North 17.3 mph - N/A   Clear
9:55 AM 1.4 °F -18.2 °F -7.6 °F 66% 30.28 in 10.0 mi North 16.1 mph - N/A   Clear
10:15 AM 1.4 °F -17.6 °F -7.6 °F 66% 30.28 in 10.0 mi North 15.0 mph - N/A   Clear
10:35 AM 1.4 °F -17.6 °F -7.6 °F 66% 30.29 in 10.0 mi North 15.0 mph - N/A   Clear
10:55 AM 1.4 °F -18.2 °F -5.8 °F 72% 30.30 in 10.0 mi North 16.1 mph - N/A   Clear
11:15 AM 3.2 °F -16.5 °F -5.8 °F 66% 30.29 in 10.0 mi North 17.3 mph - N/A   Clear
11:35 AM 3.2 °F -15.3 °F -5.8 °F 66% 30.28 in 10.0 mi North 15.0 mph - N/A   Clear
11:55 AM 3.2 °F -17.6 °F -5.8 °F 66% 30.27 in 10.0 mi North 19.6 mph - N/A   Clear
12:15 PM 3.2 °F -18.6 °F -5.8 °F 66% 30.27 in 10.0 mi North 21.9 mph - N/A   Clear
12:35 PM 3.2 °F -18.1 °F -5.8 °F 66% 30.26 in 10.0 mi North 20.7 mph 25.3 mph N/A   Clear
12:55 PM 3.2 °F -17.1 °F -4.0 °F 72% 30.26 in 10.0 mi North 18.4 mph 24.2 mph N/A   Clear
1:15 PM 3.2 °F -16.5 °F -2.2 °F 78% 30.26 in 10.0 mi North 17.3 mph - N/A   Clear
1:35 PM 3.2 °F -16.5 °F -2.2 °F 78% 30.24 in 10.0 mi North 17.3 mph - N/A   Clear
1:55 PM 3.2 °F -17.1 °F -2.2 °F 78% 30.25 in 10.0 mi North 18.4 mph - N/A   Clear
2:15 PM 5.0 °F -13.0 °F -2.2 °F 72% 30.24 in 10.0 mi North 15.0 mph - N/A   Clear
2:35 PM 5.0 °F -13.0 °F -0.4 °F 78% 30.23 in 10.0 mi North 15.0 mph - N/A   Clear
2:55 PM 3.2 °F -13.9 °F -2.2 °F 78% 30.23 in 10.0 mi NNW 12.7 mph - N/A   Clear
3:15 PM 3.2 °F -14.6 °F -0.4 °F 85% 30.23 in 10.0 mi NNW 13.8 mph - N/A   Clear
3:35 PM 3.2 °F -13.1 °F -0.4 °F 85% 30.24 in 10.0 mi NNW 11.5 mph - N/A   Clear
3:55 PM 3.2 °F -13.9 °F -2.2 °F 78% 30.24 in 10.0 mi North 12.7 mph - N/A   Clear
4:15 PM 3.2 °F -13.9 °F -0.4 °F 85% 30.23 in 10.0 mi North 12.7 mph - N/A   Clear
4:35 PM -0.4 °F -16.7 °F -9.4 °F 66% 30.24 in 10.0 mi NW 10.4 mph - N/A   Clear
4:55 PM -2.2 °F -19.9 °F -7.6 °F 78% 30.24 in 10.0 mi NW 11.5 mph - N/A   Clear
5:15 PM -4.0 °F -22.1 °F -9.4 °F 78% 30.24 in 10.0 mi NW 11.5 mph - N/A   Clear
5:35 PM -5.8 °F -26.8 °F -9.4 °F 84% 30.24 in 10.0 mi NW 15.0 mph - N/A   Clear
5:55 PM -5.8 °F -23.4 °F -11.2 °F 77% 30.24 in 10.0 mi NW 10.4 mph - N/A   Clear
6:15 PM -7.6 °F -26.6 °F -9.4 °F 92% 30.24 in 10.0 mi NW 11.5 mph - N/A   Clear
6:35 PM -7.6 °F -24.6 °F -11.2 °F 84% 30.24 in 10.0 mi NNW 9.2 mph - N/A   Clear
6:55 PM -7.6 °F -22.1 °F -11.2 °F 84% 30.24 in 10.0 mi NNW 6.9 mph - N/A   Clear
7:15 PM -7.6 °F -25.7 °F -13.0 °F 77% 30.24 in 10.0 mi NNW 10.4 mph - N/A   Clear
7:35 PM -9.4 °F -25.6 °F -11.2 °F 92% 30.23 in 10.0 mi NNW 8.1 mph - N/A   Clear
7:55 PM -9.4 °F -26.8 °F -11.2 °F 92% 30.23 in 10.0 mi NNW 9.2 mph - N/A   Clear
8:15 PM -9.4 °F -25.6 °F -11.2 °F 92% 30.22 in 10.0 mi NNW 8.1 mph - N/A   Clear
8:35 PM -9.4 °F -24.3 °F -13.0 °F 84% 30.21 in 10.0 mi NNW 6.9 mph - N/A   Clear
8:55 PM -9.4 °F -22.7 °F -13.0 °F 84% 30.20 in 10.0 mi NNW 5.8 mph - N/A   Clear
9:15 PM -9.4 °F -24.3 °F -14.8 °F 77% 30.19 in 10.0 mi NNW 6.9 mph - N/A   Clear
9:35 PM -9.4 °F -18.6 °F -11.2 °F 92% 30.17 in 10.0 mi North 3.5 mph - N/A   Clear
9:55 PM -9.4 °F -22.7 °F -14.8 °F 77% 30.16 in 10.0 mi North 5.8 mph - N/A   Clear
10:15 PM -9.4 °F -22.7 °F -13.0 °F 84% 30.16 in 10.0 mi North 5.8 mph - N/A   Clear
10:35 PM -11.2 °F -24.8 °F -14.8 °F 84% 30.16 in 10.0 mi North 5.8 mph - N/A   Clear
10:55 PM -11.2 °F - -16.6 °F 77% 30.15 in 10.0 mi Calm Calm - N/A   Clear
11:15 PM -11.2 °F -23.0 °F -16.6 °F 77% 30.15 in 10.0 mi NW 4.6 mph - N/A   Clear
11:35 PM -11.2 °F - -13.0 °F 92% 30.15 in 10.0 mi Calm Calm - N/A   Clear
11:55 PM -11.2 °F - -13.0 °F 92% 30.13 in 10.0 mi Calm Calm - N/A   Clear